sensor_id;sensor_type;location;lat;lon;timestamp;P1;durP1;ratioP1;P2;durP2;ratioP2
67140;SDS011;54058;52.010;5.546;2023-04-22T00:01:36;6.30;;;4.10;;
67140;SDS011;54058;52.010;5.546;2023-04-22T00:04:02;5.55;;;3.78;;
67140;SDS011;54058;52.010;5.546;2023-04-22T00:06:29;6.70;;;4.40;;
67140;SDS011;54058;52.010;5.546;2023-04-22T00:08:56;5.68;;;4.60;;
67140;SDS011;54058;52.010;5.546;2023-04-22T00:11:21;7.15;;;4.70;;
67140;SDS011;54058;52.010;5.546;2023-04-22T00:13:47;7.38;;;4.30;;
67140;SDS011;54058;52.010;5.546;2023-04-22T00:16:12;8.88;;;4.82;;
67140;SDS011;54058;52.010;5.546;2023-04-22T00:18:44;5.88;;;4.63;;
67140;SDS011;54058;52.010;5.546;2023-04-22T00:21:10;8.32;;;4.93;;
67140;SDS011;54058;52.010;5.546;2023-04-22T00:23:35;8.15;;;5.07;;
67140;SDS011;54058;52.010;5.546;2023-04-22T00:26:01;4.90;;;4.25;;
67140;SDS011;54058;52.010;5.546;2023-04-22T00:28:27;4.68;;;3.80;;
67140;SDS011;54058;52.010;5.546;2023-04-22T00:30:53;6.13;;;4.15;;
67140;SDS011;54058;52.010;5.546;2023-04-22T00:33:18;5.13;;;4.28;;
67140;SDS011;54058;52.010;5.546;2023-04-22T00:35:47;4.88;;;3.95;;
67140;SDS011;54058;52.010;5.546;2023-04-22T00:38:13;6.80;;;5.30;;
67140;SDS011;54058;52.010;5.546;2023-04-22T00:40:38;7.57;;;4.60;;
67140;SDS011;54058;52.010;5.546;2023-04-22T00:43:04;6.30;;;4.90;;
67140;SDS011;54058;52.010;5.546;2023-04-22T00:45:30;5.57;;;4.40;;
67140;SDS011;54058;52.010;5.546;2023-04-22T00:47:56;5.40;;;3.92;;
67140;SDS011;54058;52.010;5.546;2023-04-22T00:50:21;6.55;;;4.22;;
67140;SDS011;54058;52.010;5.546;2023-04-22T00:52:48;5.60;;;3.90;;
67140;SDS011;54058;52.010;5.546;2023-04-22T00:55:13;7.70;;;4.40;;
67140;SDS011;54058;52.010;5.546;2023-04-22T00:57:39;4.70;;;4.07;;
67140;SDS011;54058;52.010;5.546;2023-04-22T01:00:05;5.93;;;4.15;;
67140;SDS011;54058;52.010;5.546;2023-04-22T01:02:33;6.88;;;4.53;;
67140;SDS011;54058;52.010;5.546;2023-04-22T01:07:27;5.65;;;3.80;;
67140;SDS011;54058;52.010;5.546;2023-04-22T01:09:53;6.47;;;4.45;;
67140;SDS011;54058;52.010;5.546;2023-04-22T01:12:19;7.00;;;4.80;;
67140;SDS011;54058;52.010;5.546;2023-04-22T01:14:45;6.82;;;5.20;;
67140;SDS011;54058;52.010;5.546;2023-04-22T01:17:10;5.93;;;4.40;;
67140;SDS011;54058;52.010;5.546;2023-04-22T01:19:37;5.75;;;4.50;;
67140;SDS011;54058;52.010;5.546;2023-04-22T01:22:04;4.43;;;3.95;;
67140;SDS011;54058;52.010;5.546;2023-04-22T01:24:32;5.90;;;4.70;;
67140;SDS011;54058;52.010;5.546;2023-04-22T01:26:58;5.68;;;4.40;;
67140;SDS011;54058;52.010;5.546;2023-04-22T01:29:24;7.85;;;4.32;;
67140;SDS011;54058;52.010;5.546;2023-04-22T01:31:51;5.03;;;4.32;;
67140;SDS011;54058;52.010;5.546;2023-04-22T01:34:17;5.85;;;4.32;;
67140;SDS011;54058;52.010;5.546;2023-04-22T01:36:43;5.47;;;4.60;;
67140;SDS011;54058;52.010;5.546;2023-04-22T01:39:09;8.73;;;4.97;;
67140;SDS011;54058;52.010;5.546;2023-04-22T01:41:34;5.93;;;4.88;;
67140;SDS011;54058;52.010;5.546;2023-04-22T01:44:00;5.35;;;4.55;;
67140;SDS011;54058;52.010;5.546;2023-04-22T01:46:28;6.53;;;4.82;;
67140;SDS011;54058;52.010;5.546;2023-04-22T01:48:54;5.18;;;4.32;;
67140;SDS011;54058;52.010;5.546;2023-04-22T01:51:20;6.97;;;5.18;;
67140;SDS011;54058;52.010;5.546;2023-04-22T01:53:46;5.85;;;4.55;;
67140;SDS011;54058;52.010;5.546;2023-04-22T01:56:12;6.00;;;4.30;;
67140;SDS011;54058;52.010;5.546;2023-04-22T01:58:38;4.97;;;4.47;;
67140;SDS011;54058;52.010;5.546;2023-04-22T02:01:04;6.35;;;4.32;;
67140;SDS011;54058;52.010;5.546;2023-04-22T02:03:31;7.32;;;5.47;;
67140;SDS011;54058;52.010;5.546;2023-04-22T02:05:56;6.88;;;4.80;;
67140;SDS011;54058;52.010;5.546;2023-04-22T02:08:22;7.03;;;4.60;;
67140;SDS011;54058;52.010;5.546;2023-04-22T02:10:47;7.25;;;4.47;;
67140;SDS011;54058;52.010;5.546;2023-04-22T02:13:13;4.60;;;4.10;;
67140;SDS011;54058;52.010;5.546;2023-04-22T02:15:39;6.22;;;4.38;;
67140;SDS011;54058;52.010;5.546;2023-04-22T02:18:05;4.93;;;4.43;;
67140;SDS011;54058;52.010;5.546;2023-04-22T02:20:31;7.00;;;4.60;;
67140;SDS011;54058;52.010;5.546;2023-04-22T02:22:57;7.70;;;5.43;;
67140;SDS011;54058;52.010;5.546;2023-04-22T02:25:22;10.00;;;5.40;;
67140;SDS011;54058;52.010;5.546;2023-04-22T02:27:48;5.95;;;4.55;;
67140;SDS011;54058;52.010;5.546;2023-04-22T02:30:14;5.65;;;4.30;;
67140;SDS011;54058;52.010;5.546;2023-04-22T02:32:40;6.10;;;4.57;;
67140;SDS011;54058;52.010;5.546;2023-04-22T02:35:05;7.88;;;4.28;;
67140;SDS011;54058;52.010;5.546;2023-04-22T02:37:31;5.00;;;4.50;;
67140;SDS011;54058;52.010;5.546;2023-04-22T02:39:57;6.22;;;5.22;;
67140;SDS011;54058;52.010;5.546;2023-04-22T02:42:23;5.28;;;4.65;;
67140;SDS011;54058;52.010;5.546;2023-04-22T02:44:48;8.65;;;5.53;;
67140;SDS011;54058;52.010;5.546;2023-04-22T02:47:15;8.85;;;5.72;;
67140;SDS011;54058;52.010;5.546;2023-04-22T02:49:41;7.22;;;5.78;;
67140;SDS011;54058;52.010;5.546;2023-04-22T02:52:06;6.10;;;5.30;;
67140;SDS011;54058;52.010;5.546;2023-04-22T02:54:32;6.78;;;5.07;;
67140;SDS011;54058;52.010;5.546;2023-04-22T02:56:57;6.38;;;4.95;;
67140;SDS011;54058;52.010;5.546;2023-04-22T02:59:23;6.82;;;4.90;;
67140;SDS011;54058;52.010;5.546;2023-04-22T03:01:49;6.38;;;4.93;;
67140;SDS011;54058;52.010;5.546;2023-04-22T03:04:14;6.57;;;5.60;;
67140;SDS011;54058;52.010;5.546;2023-04-22T03:06:40;6.95;;;5.25;;
67140;SDS011;54058;52.010;5.546;2023-04-22T03:09:06;6.68;;;5.07;;
67140;SDS011;54058;52.010;5.546;2023-04-22T03:11:31;7.53;;;5.25;;
67140;SDS011;54058;52.010;5.546;2023-04-22T03:13:57;6.63;;;5.25;;
67140;SDS011;54058;52.010;5.546;2023-04-22T03:16:22;6.05;;;4.85;;
67140;SDS011;54058;52.010;5.546;2023-04-22T03:18:48;6.35;;;5.03;;
67140;SDS011;54058;52.010;5.546;2023-04-22T03:21:14;6.75;;;5.18;;
67140;SDS011;54058;52.010;5.546;2023-04-22T03:23:39;7.70;;;5.53;;
67140;SDS011;54058;52.010;5.546;2023-04-22T03:26:05;6.85;;;4.82;;
67140;SDS011;54058;52.010;5.546;2023-04-22T03:28:31;6.47;;;5.20;;
67140;SDS011;54058;52.010;5.546;2023-04-22T03:30:56;6.50;;;4.95;;
67140;SDS011;54058;52.010;5.546;2023-04-22T03:33:22;5.88;;;4.95;;
67140;SDS011;54058;52.010;5.546;2023-04-22T03:35:48;7.15;;;5.95;;
67140;SDS011;54058;52.010;5.546;2023-04-22T03:38:14;6.93;;;5.05;;
67140;SDS011;54058;52.010;5.546;2023-04-22T03:40:41;10.27;;;5.45;;
67140;SDS011;54058;52.010;5.546;2023-04-22T03:43:07;7.60;;;5.60;;
67140;SDS011;54058;52.010;5.546;2023-04-22T03:45:32;7.38;;;5.07;;
67140;SDS011;54058;52.010;5.546;2023-04-22T03:47:58;4.70;;;4.30;;
67140;SDS011;54058;52.010;5.546;2023-04-22T03:50:24;5.75;;;4.80;;
67140;SDS011;54058;52.010;5.546;2023-04-22T03:52:49;8.57;;;4.97;;
67140;SDS011;54058;52.010;5.546;2023-04-22T03:55:15;5.60;;;4.15;;
67140;SDS011;54058;52.010;5.546;2023-04-22T03:57:41;5.93;;;4.72;;
67140;SDS011;54058;52.010;5.546;2023-04-22T04:00:06;5.40;;;4.75;;
67140;SDS011;54058;52.010;5.546;2023-04-22T04:02:32;4.70;;;4.18;;
67140;SDS011;54058;52.010;5.546;2023-04-22T04:04:58;7.53;;;4.63;;
67140;SDS011;54058;52.010;5.546;2023-04-22T04:07:23;5.40;;;4.43;;
67140;SDS011;54058;52.010;5.546;2023-04-22T04:09:49;5.43;;;4.88;;
67140;SDS011;54058;52.010;5.546;2023-04-22T04:12:15;7.07;;;4.95;;
67140;SDS011;54058;52.010;5.546;2023-04-22T04:14:40;5.80;;;4.35;;
67140;SDS011;54058;52.010;5.546;2023-04-22T04:17:06;5.82;;;4.68;;
67140;SDS011;54058;52.010;5.546;2023-04-22T04:19:33;7.38;;;4.22;;
67140;SDS011;54058;52.010;5.546;2023-04-22T04:22:00;5.33;;;4.30;;
67140;SDS011;54058;52.010;5.546;2023-04-22T04:24:25;6.53;;;4.63;;
67140;SDS011;54058;52.010;5.546;2023-04-22T04:26:52;5.78;;;4.88;;
67140;SDS011;54058;52.010;5.546;2023-04-22T04:29:18;5.63;;;4.70;;
67140;SDS011;54058;52.010;5.546;2023-04-22T04:31:44;8.20;;;4.97;;
67140;SDS011;54058;52.010;5.546;2023-04-22T04:34:10;6.20;;;4.97;;
67140;SDS011;54058;52.010;5.546;2023-04-22T04:36:35;6.60;;;5.57;;
67140;SDS011;54058;52.010;5.546;2023-04-22T04:39:04;5.57;;;4.90;;
67140;SDS011;54058;52.010;5.546;2023-04-22T04:41:30;5.35;;;4.78;;
67140;SDS011;54058;52.010;5.546;2023-04-22T04:43:55;5.97;;;5.00;;
67140;SDS011;54058;52.010;5.546;2023-04-22T04:46:24;6.50;;;4.75;;
67140;SDS011;54058;52.010;5.546;2023-04-22T04:48:54;9.55;;;4.80;;
67140;SDS011;54058;52.010;5.546;2023-04-22T04:51:20;7.80;;;6.28;;
67140;SDS011;54058;52.010;5.546;2023-04-22T04:53:45;6.88;;;5.32;;
67140;SDS011;54058;52.010;5.546;2023-04-22T04:56:11;10.18;;;6.50;;
67140;SDS011;54058;52.010;5.546;2023-04-22T04:58:37;10.05;;;5.43;;
67140;SDS011;54058;52.010;5.546;2023-04-22T05:01:02;7.70;;;5.85;;
67140;SDS011;54058;52.010;5.546;2023-04-22T05:03:28;7.72;;;6.13;;
67140;SDS011;54058;52.010;5.546;2023-04-22T05:05:54;7.05;;;5.82;;
67140;SDS011;54058;52.010;5.546;2023-04-22T05:08:20;10.57;;;6.18;;
67140;SDS011;54058;52.010;5.546;2023-04-22T05:10:46;6.75;;;5.50;;
67140;SDS011;54058;52.010;5.546;2023-04-22T05:13:11;11.85;;;6.60;;
67140;SDS011;54058;52.010;5.546;2023-04-22T05:15:37;6.95;;;5.57;;
67140;SDS011;54058;52.010;5.546;2023-04-22T05:18:03;6.90;;;5.72;;
67140;SDS011;54058;52.010;5.546;2023-04-22T05:20:29;11.27;;;6.53;;
67140;SDS011;54058;52.010;5.546;2023-04-22T05:22:55;8.75;;;6.72;;
67140;SDS011;54058;52.010;5.546;2023-04-22T05:25:20;10.82;;;7.97;;
67140;SDS011;54058;52.010;5.546;2023-04-22T05:27:46;14.88;;;9.70;;
67140;SDS011;54058;52.010;5.546;2023-04-22T05:30:12;12.13;;;8.93;;
67140;SDS011;54058;52.010;5.546;2023-04-22T05:32:37;17.30;;;10.93;;
67140;SDS011;54058;52.010;5.546;2023-04-22T05:35:03;18.52;;;12.75;;
67140;SDS011;54058;52.010;5.546;2023-04-22T05:37:29;19.55;;;13.45;;
67140;SDS011;54058;52.010;5.546;2023-04-22T05:39:55;19.88;;;12.82;;
67140;SDS011;54058;52.010;5.546;2023-04-22T05:42:21;18.10;;;13.05;;
67140;SDS011;54058;52.010;5.546;2023-04-22T05:44:46;18.65;;;13.63;;
67140;SDS011;54058;52.010;5.546;2023-04-22T05:47:12;18.83;;;13.07;;
67140;SDS011;54058;52.010;5.546;2023-04-22T05:49:37;22.92;;;13.85;;
67140;SDS011;54058;52.010;5.546;2023-04-22T05:52:03;18.75;;;13.43;;
67140;SDS011;54058;52.010;5.546;2023-04-22T05:54:29;18.80;;;12.70;;
67140;SDS011;54058;52.010;5.546;2023-04-22T05:56:54;18.08;;;12.02;;
67140;SDS011;54058;52.010;5.546;2023-04-22T05:59:20;16.35;;;10.35;;
67140;SDS011;54058;52.010;5.546;2023-04-22T06:01:46;19.80;;;13.32;;
67140;SDS011;54058;52.010;5.546;2023-04-22T06:04:12;16.70;;;12.32;;
67140;SDS011;54058;52.010;5.546;2023-04-22T06:06:38;27.60;;;15.18;;
67140;SDS011;54058;52.010;5.546;2023-04-22T06:09:04;19.70;;;14.75;;
67140;SDS011;54058;52.010;5.546;2023-04-22T06:14:00;14.82;;;11.38;;
67140;SDS011;54058;52.010;5.546;2023-04-22T06:16:26;22.50;;;12.90;;
67140;SDS011;54058;52.010;5.546;2023-04-22T06:18:55;22.85;;;14.75;;
67140;SDS011;54058;52.010;5.546;2023-04-22T06:21:20;22.52;;;15.15;;
67140;SDS011;54058;52.010;5.546;2023-04-22T06:23:46;22.60;;;15.20;;
67140;SDS011;54058;52.010;5.546;2023-04-22T06:26:13;24.00;;;15.90;;
67140;SDS011;54058;52.010;5.546;2023-04-22T06:28:39;21.60;;;16.20;;
67140;SDS011;54058;52.010;5.546;2023-04-22T06:31:04;20.88;;;14.98;;
67140;SDS011;54058;52.010;5.546;2023-04-22T06:33:30;27.55;;;16.23;;
67140;SDS011;54058;52.010;5.546;2023-04-22T06:35:55;22.65;;;16.08;;
67140;SDS011;54058;52.010;5.546;2023-04-22T06:38:21;25.17;;;16.13;;
67140;SDS011;54058;52.010;5.546;2023-04-22T06:40:47;20.80;;;14.70;;
67140;SDS011;54058;52.010;5.546;2023-04-22T06:43:12;23.25;;;15.20;;
67140;SDS011;54058;52.010;5.546;2023-04-22T06:45:38;21.30;;;16.38;;
67140;SDS011;54058;52.010;5.546;2023-04-22T06:48:03;25.38;;;16.33;;
67140;SDS011;54058;52.010;5.546;2023-04-22T06:50:29;19.55;;;15.05;;
67140;SDS011;54058;52.010;5.546;2023-04-22T06:52:55;17.50;;;14.30;;
67140;SDS011;54058;52.010;5.546;2023-04-22T06:55:20;22.35;;;15.52;;
67140;SDS011;54058;52.010;5.546;2023-04-22T06:57:46;20.73;;;14.43;;
67140;SDS011;54058;52.010;5.546;2023-04-22T07:00:12;19.30;;;15.35;;
67140;SDS011;54058;52.010;5.546;2023-04-22T07:02:38;21.33;;;15.98;;
67140;SDS011;54058;52.010;5.546;2023-04-22T07:05:03;23.45;;;15.98;;
67140;SDS011;54058;52.010;5.546;2023-04-22T07:07:29;21.00;;;16.23;;
67140;SDS011;54058;52.010;5.546;2023-04-22T07:09:55;21.58;;;15.23;;
67140;SDS011;54058;52.010;5.546;2023-04-22T07:12:20;21.20;;;15.10;;
67140;SDS011;54058;52.010;5.546;2023-04-22T07:14:48;27.38;;;16.40;;
67140;SDS011;54058;52.010;5.546;2023-04-22T07:17:13;26.45;;;15.40;;
67140;SDS011;54058;52.010;5.546;2023-04-22T07:19:39;25.00;;;15.68;;
67140;SDS011;54058;52.010;5.546;2023-04-22T07:22:05;20.80;;;15.73;;
67140;SDS011;54058;52.010;5.546;2023-04-22T07:24:31;20.80;;;15.30;;
67140;SDS011;54058;52.010;5.546;2023-04-22T07:26:57;20.45;;;14.55;;
67140;SDS011;54058;52.010;5.546;2023-04-22T07:29:22;23.35;;;14.32;;
67140;SDS011;54058;52.010;5.546;2023-04-22T07:31:48;19.63;;;14.07;;
67140;SDS011;54058;52.010;5.546;2023-04-22T07:34:13;20.95;;;15.10;;
67140;SDS011;54058;52.010;5.546;2023-04-22T07:36:39;22.70;;;15.85;;
67140;SDS011;54058;52.010;5.546;2023-04-22T07:39:05;19.55;;;14.52;;
67140;SDS011;54058;52.010;5.546;2023-04-22T07:41:32;17.40;;;13.93;;
67140;SDS011;54058;52.010;5.546;2023-04-22T07:43:57;19.30;;;14.00;;
67140;SDS011;54058;52.010;5.546;2023-04-22T07:46:24;24.08;;;14.15;;
67140;SDS011;54058;52.010;5.546;2023-04-22T07:48:49;22.17;;;14.80;;
67140;SDS011;54058;52.010;5.546;2023-04-22T07:51:15;16.10;;;13.20;;
67140;SDS011;54058;52.010;5.546;2023-04-22T07:53:41;19.60;;;13.50;;
67140;SDS011;54058;52.010;5.546;2023-04-22T07:56:06;22.38;;;13.93;;
67140;SDS011;54058;52.010;5.546;2023-04-22T07:58:32;16.20;;;13.73;;
67140;SDS011;54058;52.010;5.546;2023-04-22T08:00:58;20.83;;;15.02;;
67140;SDS011;54058;52.010;5.546;2023-04-22T08:03:24;22.93;;;13.40;;
67140;SDS011;54058;52.010;5.546;2023-04-22T08:05:50;15.82;;;12.90;;
67140;SDS011;54058;52.010;5.546;2023-04-22T08:08:15;16.17;;;13.17;;
67140;SDS011;54058;52.010;5.546;2023-04-22T08:10:41;18.73;;;13.40;;
67140;SDS011;54058;52.010;5.546;2023-04-22T08:13:07;18.53;;;12.90;;
67140;SDS011;54058;52.010;5.546;2023-04-22T08:15:32;18.30;;;13.27;;
67140;SDS011;54058;52.010;5.546;2023-04-22T08:17:58;23.75;;;13.80;;
67140;SDS011;54058;52.010;5.546;2023-04-22T08:20:24;17.47;;;12.77;;
67140;SDS011;54058;52.010;5.546;2023-04-22T08:22:50;21.13;;;12.63;;
67140;SDS011;54058;52.010;5.546;2023-04-22T08:25:21;18.33;;;11.98;;
67140;SDS011;54058;52.010;5.546;2023-04-22T08:27:48;14.47;;;11.90;;
67140;SDS011;54058;52.010;5.546;2023-04-22T08:30:14;18.83;;;13.40;;
67140;SDS011;54058;52.010;5.546;2023-04-22T08:32:40;16.17;;;12.43;;
67140;SDS011;54058;52.010;5.546;2023-04-22T08:35:06;17.43;;;12.47;;
67140;SDS011;54058;52.010;5.546;2023-04-22T08:37:32;15.53;;;12.63;;
67140;SDS011;54058;52.010;5.546;2023-04-22T08:39:58;15.48;;;11.32;;
67140;SDS011;54058;52.010;5.546;2023-04-22T08:42:24;15.03;;;11.33;;
67140;SDS011;54058;52.010;5.546;2023-04-22T08:44:52;18.35;;;12.18;;
67140;SDS011;54058;52.010;5.546;2023-04-22T08:47:19;15.40;;;12.07;;
67140;SDS011;54058;52.010;5.546;2023-04-22T08:52:11;17.38;;;12.88;;
67140;SDS011;54058;52.010;5.546;2023-04-22T08:54:39;18.50;;;11.02;;
67140;SDS011;54058;52.010;5.546;2023-04-22T08:57:06;22.45;;;11.75;;
67140;SDS011;54058;52.010;5.546;2023-04-22T08:59:34;19.33;;;12.73;;
67140;SDS011;54058;52.010;5.546;2023-04-22T09:02:00;15.43;;;11.85;;
67140;SDS011;54058;52.010;5.546;2023-04-22T09:04:28;14.27;;;11.80;;
67140;SDS011;54058;52.010;5.546;2023-04-22T09:06:54;22.80;;;11.57;;
67140;SDS011;54058;52.010;5.546;2023-04-22T09:09:20;13.95;;;11.68;;
67140;SDS011;54058;52.010;5.546;2023-04-22T09:11:48;15.65;;;9.77;;
67140;SDS011;54058;52.010;5.546;2023-04-22T09:14:15;13.80;;;10.50;;
67140;SDS011;54058;52.010;5.546;2023-04-22T09:16:45;12.15;;;10.25;;
67140;SDS011;54058;52.010;5.546;2023-04-22T09:19:11;13.82;;;10.75;;
67140;SDS011;54058;52.010;5.546;2023-04-22T09:21:38;14.95;;;11.35;;
67140;SDS011;54058;52.010;5.546;2023-04-22T09:26:31;22.75;;;11.13;;
67140;SDS011;54058;52.010;5.546;2023-04-22T09:28:58;13.50;;;10.40;;
67140;SDS011;54058;52.010;5.546;2023-04-22T09:31:25;16.77;;;10.60;;
67140;SDS011;54058;52.010;5.546;2023-04-22T09:33:52;17.13;;;9.30;;
67140;SDS011;54058;52.010;5.546;2023-04-22T09:36:27;12.38;;;8.63;;
67140;SDS011;54058;52.010;5.546;2023-04-22T09:38:54;11.02;;;8.57;;
67140;SDS011;54058;52.010;5.546;2023-04-22T09:41:28;13.43;;;9.25;;
67140;SDS011;54058;52.010;5.546;2023-04-22T09:43:55;13.35;;;9.15;;
67140;SDS011;54058;52.010;5.546;2023-04-22T09:48:49;15.90;;;8.75;;
67140;SDS011;54058;52.010;5.546;2023-04-22T09:51:15;10.98;;;8.80;;
67140;SDS011;54058;52.010;5.546;2023-04-22T09:53:41;13.40;;;9.18;;
67140;SDS011;54058;52.010;5.546;2023-04-22T09:56:07;14.73;;;9.00;;
67140;SDS011;54058;52.010;5.546;2023-04-22T09:58:37;8.90;;;7.30;;
67140;SDS011;54058;52.010;5.546;2023-04-22T10:01:04;14.70;;;8.30;;
67140;SDS011;54058;52.010;5.546;2023-04-22T10:03:30;10.35;;;7.80;;
67140;SDS011;54058;52.010;5.546;2023-04-22T10:05:56;9.83;;;8.20;;
67140;SDS011;54058;52.010;5.546;2023-04-22T10:08:22;9.63;;;8.30;;
67140;SDS011;54058;52.010;5.546;2023-04-22T10:10:48;10.80;;;7.40;;
67140;SDS011;54058;52.010;5.546;2023-04-22T10:13:14;10.27;;;7.93;;
67140;SDS011;54058;52.010;5.546;2023-04-22T10:15:41;13.60;;;8.90;;
67140;SDS011;54058;52.010;5.546;2023-04-22T10:18:11;12.93;;;8.38;;
67140;SDS011;54058;52.010;5.546;2023-04-22T10:20:41;13.88;;;9.00;;
67140;SDS011;54058;52.010;5.546;2023-04-22T10:23:16;11.00;;;8.02;;
67140;SDS011;54058;52.010;5.546;2023-04-22T10:25:45;14.07;;;8.73;;
67140;SDS011;54058;52.010;5.546;2023-04-22T10:28:14;14.65;;;8.73;;
67140;SDS011;54058;52.010;5.546;2023-04-22T10:30:41;14.50;;;8.43;;
67140;SDS011;54058;52.010;5.546;2023-04-22T10:41:23;18.95;;;9.60;;
67140;SDS011;54058;52.010;5.546;2023-04-22T10:44:05;11.38;;;9.15;;
67140;SDS011;54058;52.010;5.546;2023-04-22T10:49:09;10.15;;;8.73;;
67140;SDS011;54058;52.010;5.546;2023-04-22T10:55:00;10.55;;;8.02;;
67140;SDS011;54058;52.010;5.546;2023-04-22T10:59:55;10.65;;;7.70;;
67140;SDS011;54058;52.010;5.546;2023-04-22T11:02:20;9.23;;;8.25;;
67140;SDS011;54058;52.010;5.546;2023-04-22T11:15:16;14.38;;;8.68;;
67140;SDS011;54058;52.010;5.546;2023-04-22T11:17:44;9.25;;;7.70;;
67140;SDS011;54058;52.010;5.546;2023-04-22T11:20:12;12.52;;;8.90;;
67140;SDS011;54058;52.010;5.546;2023-04-22T11:22:42;11.55;;;9.02;;
67140;SDS011;54058;52.010;5.546;2023-04-22T11:25:21;14.02;;;8.65;;
67140;SDS011;54058;52.010;5.546;2023-04-22T11:27:48;10.38;;;8.02;;
67140;SDS011;54058;52.010;5.546;2023-04-22T11:30:14;10.80;;;8.67;;
67140;SDS011;54058;52.010;5.546;2023-04-22T11:32:42;12.30;;;8.18;;
67140;SDS011;54058;52.010;5.546;2023-04-22T11:35:11;10.52;;;8.20;;
67140;SDS011;54058;52.010;5.546;2023-04-22T11:37:49;8.93;;;7.72;;
67140;SDS011;54058;52.010;5.546;2023-04-22T11:40:17;11.88;;;8.27;;
67140;SDS011;54058;52.010;5.546;2023-04-22T11:42:46;8.45;;;7.50;;
67140;SDS011;54058;52.010;5.546;2023-04-22T11:45:12;9.95;;;8.70;;
67140;SDS011;54058;52.010;5.546;2023-04-22T11:47:39;11.07;;;7.57;;
67140;SDS011;54058;52.010;5.546;2023-04-22T11:50:06;11.52;;;7.53;;
67140;SDS011;54058;52.010;5.546;2023-04-22T11:57:55;15.00;;;7.93;;
67140;SDS011;54058;52.010;5.546;2023-04-22T12:00:24;11.65;;;9.15;;
67140;SDS011;54058;52.010;5.546;2023-04-22T12:02:56;10.75;;;8.55;;
67140;SDS011;54058;52.010;5.546;2023-04-22T12:08:12;13.80;;;8.40;;
67140;SDS011;54058;52.010;5.546;2023-04-22T12:10:49;12.85;;;9.77;;
67140;SDS011;54058;52.010;5.546;2023-04-22T12:15:55;12.38;;;9.35;;
67140;SDS011;54058;52.010;5.546;2023-04-22T12:18:35;9.85;;;8.05;;
67140;SDS011;54058;52.010;5.546;2023-04-22T12:23:41;10.85;;;9.43;;
67140;SDS011;54058;52.010;5.546;2023-04-22T12:26:07;11.85;;;8.70;;
67140;SDS011;54058;52.010;5.546;2023-04-22T12:28:33;15.88;;;10.35;;
67140;SDS011;54058;52.010;5.546;2023-04-22T12:30:59;14.93;;;10.43;;
67140;SDS011;54058;52.010;5.546;2023-04-22T12:33:24;14.95;;;9.98;;
67140;SDS011;54058;52.010;5.546;2023-04-22T12:35:50;15.55;;;9.75;;
67140;SDS011;54058;52.010;5.546;2023-04-22T12:38:16;14.77;;;10.23;;
67140;SDS011;54058;52.010;5.546;2023-04-22T12:40:43;15.52;;;10.13;;
67140;SDS011;54058;52.010;5.546;2023-04-22T12:43:08;12.00;;;9.65;;
67140;SDS011;54058;52.010;5.546;2023-04-22T12:45:34;14.65;;;10.55;;
67140;SDS011;54058;52.010;5.546;2023-04-22T12:48:00;13.45;;;10.07;;
67140;SDS011;54058;52.010;5.546;2023-04-22T12:50:25;14.07;;;9.93;;
67140;SDS011;54058;52.010;5.546;2023-04-22T12:52:51;15.73;;;10.57;;
67140;SDS011;54058;52.010;5.546;2023-04-22T12:55:17;12.05;;;9.40;;
67140;SDS011;54058;52.010;5.546;2023-04-22T12:57:44;14.73;;;10.52;;
67140;SDS011;54058;52.010;5.546;2023-04-22T13:00:10;18.10;;;10.43;;
67140;SDS011;54058;52.010;5.546;2023-04-22T13:02:42;13.80;;;9.80;;
67140;SDS011;54058;52.010;5.546;2023-04-22T13:05:09;14.45;;;10.45;;
67140;SDS011;54058;52.010;5.546;2023-04-22T13:07:36;15.60;;;11.05;;
67140;SDS011;54058;52.010;5.546;2023-04-22T13:10:03;14.13;;;11.02;;
67140;SDS011;54058;52.010;5.546;2023-04-22T13:12:30;13.07;;;10.18;;
67140;SDS011;54058;52.010;5.546;2023-04-22T13:14:56;14.52;;;10.05;;
67140;SDS011;54058;52.010;5.546;2023-04-22T13:17:23;12.60;;;10.18;;
67140;SDS011;54058;52.010;5.546;2023-04-22T13:19:50;11.57;;;9.23;;
67140;SDS011;54058;52.010;5.546;2023-04-22T13:22:16;14.77;;;10.20;;
67140;SDS011;54058;52.010;5.546;2023-04-22T13:24:42;14.63;;;11.15;;
67140;SDS011;54058;52.010;5.546;2023-04-22T13:27:08;12.95;;;9.45;;
67140;SDS011;54058;52.010;5.546;2023-04-22T13:29:34;13.45;;;9.48;;
67140;SDS011;54058;52.010;5.546;2023-04-22T13:32:00;16.98;;;10.45;;
67140;SDS011;54058;52.010;5.546;2023-04-22T13:34:27;15.85;;;11.65;;
67140;SDS011;54058;52.010;5.546;2023-04-22T13:36:52;15.02;;;10.80;;
67140;SDS011;54058;52.010;5.546;2023-04-22T13:39:19;17.73;;;11.07;;
67140;SDS011;54058;52.010;5.546;2023-04-22T13:41:45;16.23;;;12.65;;
67140;SDS011;54058;52.010;5.546;2023-04-22T13:44:12;17.02;;;12.20;;
67140;SDS011;54058;52.010;5.546;2023-04-22T13:46:38;14.80;;;11.60;;
67140;SDS011;54058;52.010;5.546;2023-04-22T13:49:08;15.27;;;11.90;;
67140;SDS011;54058;52.010;5.546;2023-04-22T13:51:34;17.13;;;12.05;;
67140;SDS011;54058;52.010;5.546;2023-04-22T13:54:03;16.48;;;12.25;;
67140;SDS011;54058;52.010;5.546;2023-04-22T13:56:29;16.88;;;12.52;;
67140;SDS011;54058;52.010;5.546;2023-04-22T13:58:55;18.60;;;13.00;;
67140;SDS011;54058;52.010;5.546;2023-04-22T14:01:21;13.40;;;11.15;;
67140;SDS011;54058;52.010;5.546;2023-04-22T14:06:15;14.38;;;11.05;;
67140;SDS011;54058;52.010;5.546;2023-04-22T14:08:41;15.88;;;10.43;;
67140;SDS011;54058;52.010;5.546;2023-04-22T14:11:07;17.00;;;11.02;;
67140;SDS011;54058;52.010;5.546;2023-04-22T14:13:33;16.38;;;11.05;;
67140;SDS011;54058;52.010;5.546;2023-04-22T14:15:59;15.13;;;10.43;;
67140;SDS011;54058;52.010;5.546;2023-04-22T14:18:26;13.32;;;10.70;;
67140;SDS011;54058;52.010;5.546;2023-04-22T14:20:52;16.90;;;11.70;;
67140;SDS011;54058;52.010;5.546;2023-04-22T14:23:18;15.65;;;10.75;;
67140;SDS011;54058;52.010;5.546;2023-04-22T14:25:45;18.95;;;11.45;;
67140;SDS011;54058;52.010;5.546;2023-04-22T14:28:12;16.75;;;11.10;;
67140;SDS011;54058;52.010;5.546;2023-04-22T14:33:04;16.50;;;10.00;;
67140;SDS011;54058;52.010;5.546;2023-04-22T14:35:34;17.33;;;10.63;;
67140;SDS011;54058;52.010;5.546;2023-04-22T14:38:02;14.82;;;10.23;;
67140;SDS011;54058;52.010;5.546;2023-04-22T14:40:29;15.05;;;10.73;;
67140;SDS011;54058;52.010;5.546;2023-04-22T14:42:56;13.80;;;11.00;;
67140;SDS011;54058;52.010;5.546;2023-04-22T14:45:23;16.70;;;10.60;;
67140;SDS011;54058;52.010;5.546;2023-04-22T14:47:50;13.93;;;10.25;;
67140;SDS011;54058;52.010;5.546;2023-04-22T14:50:17;11.90;;;10.07;;
67140;SDS011;54058;52.010;5.546;2023-04-22T14:52:43;13.57;;;10.32;;
67140;SDS011;54058;52.010;5.546;2023-04-22T14:55:10;14.37;;;10.70;;
67140;SDS011;54058;52.010;5.546;2023-04-22T14:57:37;15.13;;;10.93;;
67140;SDS011;54058;52.010;5.546;2023-04-22T15:00:05;14.70;;;9.88;;
67140;SDS011;54058;52.010;5.546;2023-04-22T15:02:32;12.75;;;10.13;;
67140;SDS011;54058;52.010;5.546;2023-04-22T15:04:58;14.75;;;10.00;;
67140;SDS011;54058;52.010;5.546;2023-04-22T15:07:24;13.88;;;11.00;;
67140;SDS011;54058;52.010;5.546;2023-04-22T15:09:50;12.80;;;10.50;;
67140;SDS011;54058;52.010;5.546;2023-04-22T15:12:17;14.82;;;10.15;;
67140;SDS011;54058;52.010;5.546;2023-04-22T15:14:43;11.07;;;9.77;;
67140;SDS011;54058;52.010;5.546;2023-04-22T15:17:08;16.05;;;10.38;;
67140;SDS011;54058;52.010;5.546;2023-04-22T15:19:34;17.48;;;10.63;;
67140;SDS011;54058;52.010;5.546;2023-04-22T15:22:00;16.73;;;10.18;;
67140;SDS011;54058;52.010;5.546;2023-04-22T15:24:26;17.90;;;11.07;;
67140;SDS011;54058;52.010;5.546;2023-04-22T15:26:52;16.95;;;12.25;;